EJU56ZT EGBB-EHAM
Flight info
| Callsign | EJU56ZT |
|---|---|
| Flight time | 0h 53m |
| Altitude | 27000 |
| Route | UNGAP P155 SIVDA P137 REDFA |
| Aircraft | A320/M-SDE2E3FGHIJ1RWXYZ/LB1 |
Departure
| Time | 2026-04-28 18:25 |
|---|---|
| Airport | Birmingham Airport (EGBB) |
Arrival
| Time | 2026-04-28 19:19 |
|---|---|
| Airport | Amsterdam Airport Schiphol (EHAM) |
| Time | Latitude | Longitude | Altitude | Speed | Heading |
|---|---|---|---|---|---|
| 2026-04-28 17:38 | 52.45399 | -1.73519 | 324 ft | 0 kts | 146° |
| 2026-04-28 18:14 | 52.45402 | -1.73522 | 323 ft | 3 kts | 146° |
| 2026-04-28 18:14 | 52.45425 | -1.73546 | 320 ft | 4 kts | 150° |
| 2026-04-28 18:14 | 52.45449 | -1.73566 | 322 ft | 4 kts | 160° |
| 2026-04-28 18:14 | 52.45474 | -1.73574 | 322 ft | 4 kts | 200° |
| 2026-04-28 18:15 | 52.45484 | -1.73566 | 322 ft | 0 kts | 236° |
| 2026-04-28 18:18 | 52.45483 | -1.73568 | 322 ft | 1 kts | 236° |
| 2026-04-28 18:18 | 52.45470 | -1.73598 | 322 ft | 3 kts | 236° |
| 2026-04-28 18:18 | 52.45460 | -1.73623 | 323 ft | 6 kts | 236° |
| 2026-04-28 18:19 | 52.45429 | -1.73697 | 323 ft | 5 kts | 236° |
| 2026-04-28 18:19 | 52.45410 | -1.73743 | 323 ft | 6 kts | 236° |
| 2026-04-28 18:19 | 52.45388 | -1.73796 | 322 ft | 5 kts | 236° |
| 2026-04-28 18:19 | 52.45371 | -1.73837 | 323 ft | 4 kts | 236° |
| 2026-04-28 18:20 | 52.45354 | -1.73880 | 323 ft | 5 kts | 236° |
| 2026-04-28 18:20 | 52.45334 | -1.73927 | 323 ft | 5 kts | 236° |
| 2026-04-28 18:20 | 52.45287 | -1.73970 | 323 ft | 12 kts | 168° |
| 2026-04-28 18:20 | 52.45217 | -1.73904 | 323 ft | 11 kts | 146° |
| 2026-04-28 18:21 | 52.45157 | -1.73836 | 323 ft | 10 kts | 145° |
| 2026-04-28 18:21 | 52.45105 | -1.73781 | 323 ft | 8 kts | 150° |
| 2026-04-28 18:21 | 52.45048 | -1.73749 | 323 ft | 10 kts | 162° |
| 2026-04-28 18:21 | 52.44995 | -1.73700 | 323 ft | 8 kts | 145° |
| 2026-04-28 18:22 | 52.44951 | -1.73653 | 323 ft | 7 kts | 149° |
| 2026-04-28 18:22 | 52.44892 | -1.73651 | 323 ft | 10 kts | 196° |
| 2026-04-28 18:22 | 52.44814 | -1.73692 | 323 ft | 13 kts | 198° |
| 2026-04-28 18:22 | 52.44717 | -1.73725 | 324 ft | 15 kts | 167° |
| 2026-04-28 18:23 | 52.44622 | -1.73628 | 323 ft | 17 kts | 146° |
| 2026-04-28 18:23 | 52.44518 | -1.73514 | 324 ft | 17 kts | 145° |
| 2026-04-28 18:23 | 52.44435 | -1.73424 | 323 ft | 13 kts | 148° |
| 2026-04-28 18:23 | 52.44352 | -1.73476 | 324 ft | 16 kts | 235° |
| 2026-04-28 18:24 | 52.44326 | -1.73615 | 324 ft | 13 kts | 295° |
| 2026-04-28 18:24 | 52.44373 | -1.73677 | 325 ft | 12 kts | 326° |
| 2026-04-28 18:24 | 52.44599 | -1.73925 | 325 ft | 71 kts | 326° |
| 2026-04-28 18:24 | 52.45199 | -1.74588 | 329 ft | 134 kts | 326° |
| 2026-04-28 18:25 | 52.46098 | -1.75559 | 562 ft | 162 kts | 332° |
| 2026-04-28 18:25 | 52.47031 | -1.76597 | 1384 ft | 162 kts | 330° |
| 2026-04-28 18:25 | 52.47991 | -1.77677 | 2000 ft | 176 kts | 329° |
| 2026-04-28 18:26 | 52.50318 | -1.80063 | 3055 ft | 210 kts | 346° |
| 2026-04-28 18:26 | 52.51764 | -1.80146 | 3921 ft | 212 kts | 14° |
| 2026-04-28 18:26 | 52.53046 | -1.78932 | 4759 ft | 219 kts | 46° |
| 2026-04-28 18:26 | 52.53755 | -1.76682 | 5566 ft | 231 kts | 74° |
| 2026-04-28 18:27 | 52.53889 | -1.74001 | 5931 ft | 241 kts | 94° |
| 2026-04-28 18:27 | 52.53537 | -1.71293 | 6001 ft | 243 kts | 100° |
| 2026-04-28 18:27 | 52.53132 | -1.68601 | 6006 ft | 244 kts | 105° |
| 2026-04-28 18:27 | 52.52288 | -1.66144 | 6013 ft | 263 kts | 130° |
| 2026-04-28 18:28 | 52.50958 | -1.63920 | 6014 ft | 278 kts | 133° |
| 2026-04-28 18:28 | 52.49572 | -1.61687 | 6018 ft | 280 kts | 134° |
| 2026-04-28 18:28 | 52.48176 | -1.59446 | 6009 ft | 281 kts | 134° |
| 2026-04-28 18:28 | 52.46778 | -1.57205 | 6007 ft | 281 kts | 134° |
| 2026-04-28 18:29 | 52.45384 | -1.54957 | 6015 ft | 281 kts | 133° |
| 2026-04-28 18:29 | 52.43997 | -1.52704 | 6007 ft | 281 kts | 133° |
| 2026-04-28 18:29 | 52.42606 | -1.50441 | 6020 ft | 281 kts | 134° |
| 2026-04-28 18:29 | 52.41219 | -1.48182 | 6008 ft | 281 kts | 133° |
| 2026-04-28 18:30 | 52.39827 | -1.45922 | 6007 ft | 282 kts | 134° |
| 2026-04-28 18:30 | 52.38906 | -1.44425 | 6008 ft | 282 kts | 134° |
| 2026-04-28 18:30 | 52.37129 | -1.41286 | 6026 ft | 280 kts | 122° |
| 2026-04-28 18:30 | 52.36240 | -1.38476 | 6028 ft | 278 kts | 106° |
| 2026-04-28 18:31 | 52.35875 | -1.35355 | 6572 ft | 281 kts | 90° |
| 2026-04-28 18:31 | 52.35883 | -1.32206 | 7535 ft | 282 kts | 86° |
| 2026-04-28 18:31 | 52.35896 | -1.28984 | 8417 ft | 285 kts | 86° |
| 2026-04-28 18:31 | 52.35903 | -1.25718 | 9306 ft | 289 kts | 87° |
| 2026-04-28 18:32 | 52.35908 | -1.22407 | 10188 ft | 293 kts | 87° |
| 2026-04-28 18:32 | 52.35911 | -1.19018 | 10740 ft | 308 kts | 87° |
| 2026-04-28 18:32 | 52.35920 | -1.15373 | 11079 ft | 329 kts | 87° |
| 2026-04-28 18:32 | 52.35929 | -1.11576 | 11733 ft | 337 kts | 86° |
| 2026-04-28 18:33 | 52.35934 | -1.07706 | 12476 ft | 343 kts | 86° |
| 2026-04-28 18:33 | 52.35937 | -1.03785 | 13233 ft | 347 kts | 86° |
| 2026-04-28 18:33 | 52.35941 | -0.99800 | 13988 ft | 352 kts | 86° |
| 2026-04-28 18:33 | 52.35946 | -0.95771 | 14675 ft | 356 kts | 86° |
| 2026-04-28 18:34 | 52.35951 | -0.91691 | 15329 ft | 361 kts | 86° |
| 2026-04-28 18:34 | 52.35952 | -0.87571 | 15981 ft | 365 kts | 86° |
| 2026-04-28 18:34 | 52.35948 | -0.83393 | 16630 ft | 370 kts | 86° |
| 2026-04-28 18:34 | 52.35941 | -0.79158 | 17264 ft | 374 kts | 86° |
| 2026-04-28 18:35 | 52.35935 | -0.74874 | 17892 ft | 379 kts | 86° |
| 2026-04-28 18:35 | 52.35930 | -0.70544 | 18521 ft | 383 kts | 86° |
| 2026-04-28 18:35 | 52.35929 | -0.66157 | 19076 ft | 388 kts | 86° |
| 2026-04-28 18:35 | 52.35925 | -0.61724 | 19647 ft | 391 kts | 86° |
| 2026-04-28 18:36 | 52.35916 | -0.57324 | 20220 ft | 394 kts | 86° |
| 2026-04-28 18:36 | 52.35904 | -0.52815 | 20815 ft | 397 kts | 86° |
| 2026-04-28 18:36 | 52.35891 | -0.48289 | 21408 ft | 400 kts | 86° |
| 2026-04-28 18:36 | 52.35874 | -0.43715 | 21986 ft | 403 kts | 86° |
| 2026-04-28 18:37 | 52.35854 | -0.39113 | 22553 ft | 407 kts | 86° |
| 2026-04-28 18:37 | 52.35834 | -0.34467 | 23121 ft | 410 kts | 86° |
| 2026-04-28 18:37 | 52.35809 | -0.29790 | 23666 ft | 413 kts | 86° |
| 2026-04-28 18:37 | 52.35782 | -0.25071 | 24159 ft | 417 kts | 87° |
| 2026-04-28 18:38 | 52.35753 | -0.20303 | 24594 ft | 420 kts | 87° |
| 2026-04-28 18:38 | 52.35725 | -0.15504 | 25018 ft | 424 kts | 87° |
| 2026-04-28 18:38 | 52.35697 | -0.10668 | 25441 ft | 427 kts | 87° |
| 2026-04-28 18:38 | 52.35666 | -0.05795 | 25855 ft | 430 kts | 87° |
| 2026-04-28 18:39 | 52.35634 | -0.00890 | 26259 ft | 433 kts | 87° |
| 2026-04-28 18:39 | 52.35514 | 0.03980 | 26641 ft | 438 kts | 93° |
| 2026-04-28 18:39 | 52.35093 | 0.08943 | 27026 ft | 442 kts | 95° |
| 2026-04-28 18:39 | 52.34647 | 0.13936 | 27284 ft | 445 kts | 96° |
| 2026-04-28 18:40 | 52.34203 | 0.18881 | 27327 ft | 431 kts | 96° |
| 2026-04-28 18:40 | 52.33772 | 0.23661 | 27328 ft | 421 kts | 96° |
| 2026-04-28 18:40 | 52.33349 | 0.28379 | 27329 ft | 418 kts | 96° |
| 2026-04-28 18:40 | 52.32929 | 0.33079 | 27337 ft | 417 kts | 96° |
| 2026-04-28 18:41 | 52.32508 | 0.37770 | 27330 ft | 417 kts | 96° |
| 2026-04-28 18:41 | 52.32084 | 0.42465 | 27325 ft | 417 kts | 96° |
| 2026-04-28 18:41 | 52.31656 | 0.47155 | 27326 ft | 418 kts | 96° |
| 2026-04-28 18:41 | 52.31229 | 0.51851 | 27330 ft | 418 kts | 97° |
| 2026-04-28 18:42 | 52.30800 | 0.56562 | 27332 ft | 418 kts | 97° |
| 2026-04-28 18:42 | 52.30369 | 0.61259 | 27332 ft | 418 kts | 97° |
| 2026-04-28 18:42 | 52.29936 | 0.65956 | 27335 ft | 418 kts | 97° |
| 2026-04-28 18:42 | 52.29496 | 0.70655 | 27331 ft | 418 kts | 97° |
| 2026-04-28 18:43 | 52.29053 | 0.75349 | 27328 ft | 418 kts | 98° |
| 2026-04-28 18:43 | 52.28610 | 0.80052 | 27301 ft | 419 kts | 98° |
| 2026-04-28 18:43 | 52.28168 | 0.84747 | 27301 ft | 419 kts | 98° |
| 2026-04-28 18:43 | 52.27724 | 0.89445 | 27298 ft | 419 kts | 98° |
| 2026-04-28 18:44 | 52.27276 | 0.94143 | 27295 ft | 419 kts | 98° |
| 2026-04-28 18:44 | 52.26377 | 1.03556 | 27292 ft | 420 kts | 99° |
| 2026-04-28 18:44 | 52.25924 | 1.08258 | 27295 ft | 420 kts | 99° |
| 2026-04-28 18:45 | 52.25471 | 1.12966 | 27291 ft | 420 kts | 99° |
| 2026-04-28 18:45 | 52.25015 | 1.17673 | 27297 ft | 420 kts | 99° |
| 2026-04-28 18:45 | 52.24552 | 1.22386 | 27295 ft | 420 kts | 99° |
| 2026-04-28 18:45 | 52.24095 | 1.27033 | 27296 ft | 421 kts | 99° |
| 2026-04-28 18:46 | 52.23631 | 1.31746 | 27295 ft | 421 kts | 99° |
| 2026-04-28 18:46 | 52.23158 | 1.36518 | 27296 ft | 421 kts | 100° |
| 2026-04-28 18:46 | 52.22695 | 1.41172 | 27298 ft | 421 kts | 100° |
| 2026-04-28 18:46 | 52.22225 | 1.45889 | 27298 ft | 422 kts | 100° |
| 2026-04-28 18:47 | 52.21754 | 1.50612 | 27298 ft | 422 kts | 100° |
| 2026-04-28 18:47 | 52.21281 | 1.55330 | 27295 ft | 422 kts | 101° |
| 2026-04-28 18:47 | 52.20802 | 1.60048 | 27298 ft | 422 kts | 101° |
| 2026-04-28 18:47 | 52.20319 | 1.64777 | 27297 ft | 423 kts | 101° |
| 2026-04-28 18:48 | 52.19836 | 1.69501 | 27296 ft | 423 kts | 101° |
| 2026-04-28 18:48 | 52.19352 | 1.74227 | 27291 ft | 423 kts | 101° |
| 2026-04-28 18:48 | 52.18866 | 1.78969 | 27295 ft | 423 kts | 101° |
| 2026-04-28 18:48 | 52.18381 | 1.83703 | 27291 ft | 424 kts | 101° |
| 2026-04-28 18:49 | 52.17896 | 1.88411 | 27232 ft | 417 kts | 101° |
| 2026-04-28 18:49 | 52.17734 | 1.89977 | 27133 ft | 414 kts | 101° |
| 2026-04-28 18:49 | 52.16945 | 1.97592 | 26473 ft | 407 kts | 102° |
| 2026-04-28 18:49 | 52.16472 | 2.02127 | 26030 ft | 405 kts | 102° |
| 2026-04-28 18:50 | 52.15998 | 2.06631 | 25596 ft | 402 kts | 102° |
| 2026-04-28 18:50 | 52.15525 | 2.11105 | 25155 ft | 400 kts | 102° |
| 2026-04-28 18:50 | 52.15050 | 2.15565 | 24717 ft | 398 kts | 102° |
| 2026-04-28 18:50 | 52.14579 | 2.19994 | 24284 ft | 396 kts | 102° |
| 2026-04-28 18:51 | 52.14115 | 2.24335 | 23866 ft | 394 kts | 102° |
| 2026-04-28 18:51 | 52.13646 | 2.28709 | 23408 ft | 391 kts | 102° |
| 2026-04-28 18:51 | 52.13179 | 2.33056 | 23265 ft | 388 kts | 102° |
| 2026-04-28 18:51 | 52.12709 | 2.37391 | 23296 ft | 389 kts | 102° |
| 2026-04-28 18:52 | 52.12254 | 2.41733 | 23292 ft | 390 kts | 98° |
| 2026-04-28 18:52 | 52.12171 | 2.46172 | 23294 ft | 392 kts | 86° |
| 2026-04-28 18:52 | 52.12630 | 2.50513 | 23295 ft | 392 kts | 73° |
| 2026-04-28 18:52 | 52.13613 | 2.54634 | 23292 ft | 390 kts | 60° |
| 2026-04-28 18:53 | 52.14974 | 2.58444 | 23294 ft | 389 kts | 57° |
| 2026-04-28 18:53 | 52.16360 | 2.62231 | 23103 ft | 389 kts | 57° |
| 2026-04-28 18:53 | 52.17760 | 2.66081 | 22185 ft | 399 kts | 57° |
| 2026-04-28 18:53 | 52.19163 | 2.69970 | 21386 ft | 395 kts | 58° |
| 2026-04-28 18:54 | 52.20367 | 2.73890 | 21047 ft | 379 kts | 64° |
| 2026-04-28 18:54 | 52.21426 | 2.77778 | 20794 ft | 372 kts | 65° |
| 2026-04-28 18:54 | 52.22460 | 2.81604 | 20534 ft | 366 kts | 65° |
| 2026-04-28 18:54 | 52.23464 | 2.85345 | 20291 ft | 362 kts | 65° |
| 2026-04-28 18:55 | 52.24471 | 2.89106 | 20044 ft | 360 kts | 65° |
| 2026-04-28 18:55 | 52.25131 | 2.91579 | 19874 ft | 358 kts | 65° |
| 2026-04-28 18:55 | 52.26451 | 2.96543 | 19543 ft | 354 kts | 65° |
| 2026-04-28 18:55 | 52.27425 | 3.00223 | 19207 ft | 351 kts | 65° |
| 2026-04-28 18:56 | 52.28391 | 3.03870 | 18883 ft | 347 kts | 65° |
| 2026-04-28 18:56 | 52.29350 | 3.07476 | 18541 ft | 344 kts | 65° |
| 2026-04-28 18:56 | 52.30285 | 3.10989 | 18061 ft | 339 kts | 65° |
| 2026-04-28 18:56 | 52.31214 | 3.14496 | 17371 ft | 335 kts | 65° |
| 2026-04-28 18:57 | 52.32132 | 3.17970 | 16712 ft | 331 kts | 65° |
| 2026-04-28 18:57 | 52.33038 | 3.21405 | 16078 ft | 327 kts | 65° |
| 2026-04-28 18:57 | 52.33934 | 3.24802 | 15449 ft | 323 kts | 65° |
| 2026-04-28 18:57 | 52.34818 | 3.28161 | 14838 ft | 320 kts | 65° |
| 2026-04-28 18:58 | 52.35696 | 3.31511 | 14431 ft | 319 kts | 65° |
| 2026-04-28 18:58 | 52.36568 | 3.34847 | 14125 ft | 317 kts | 65° |
| 2026-04-28 18:58 | 52.37433 | 3.38151 | 13779 ft | 315 kts | 65° |
| 2026-04-28 18:58 | 52.38290 | 3.41435 | 13412 ft | 313 kts | 65° |
| 2026-04-28 18:59 | 52.39131 | 3.44655 | 13072 ft | 311 kts | 65° |
| 2026-04-28 18:59 | 52.39980 | 3.47901 | 12712 ft | 309 kts | 65° |
| 2026-04-28 18:59 | 52.40820 | 3.51128 | 12346 ft | 307 kts | 65° |
| 2026-04-28 18:59 | 52.41656 | 3.54346 | 11995 ft | 305 kts | 65° |
| 2026-04-28 19:00 | 52.42484 | 3.57538 | 11650 ft | 303 kts | 65° |
| 2026-04-28 19:00 | 52.43308 | 3.60714 | 11316 ft | 301 kts | 66° |
| 2026-04-28 19:00 | 52.44110 | 3.63823 | 10977 ft | 299 kts | 66° |
| 2026-04-28 19:00 | 52.44916 | 3.66952 | 10643 ft | 297 kts | 66° |
| 2026-04-28 19:01 | 52.45716 | 3.70056 | 10299 ft | 295 kts | 66° |
| 2026-04-28 19:01 | 52.46512 | 3.73149 | 9950 ft | 292 kts | 66° |
| 2026-04-28 19:01 | 52.47299 | 3.76210 | 9571 ft | 290 kts | 66° |
| 2026-04-28 19:01 | 52.48078 | 3.79246 | 9191 ft | 288 kts | 66° |
| 2026-04-28 19:02 | 52.48849 | 3.82257 | 8813 ft | 285 kts | 66° |
| 2026-04-28 19:02 | 52.49615 | 3.85247 | 8433 ft | 283 kts | 66° |
| 2026-04-28 19:02 | 52.50372 | 3.88202 | 8048 ft | 276 kts | 68° |
| 2026-04-28 19:02 | 52.51094 | 3.91023 | 7836 ft | 259 kts | 68° |
| 2026-04-28 19:03 | 52.51642 | 3.93794 | 7402 ft | 253 kts | 78° |
| 2026-04-28 19:03 | 52.51833 | 3.96656 | 7316 ft | 252 kts | 89° |
| 2026-04-28 19:03 | 52.51687 | 3.99537 | 7324 ft | 255 kts | 99° |
| 2026-04-28 19:03 | 52.51193 | 4.02342 | 7322 ft | 258 kts | 109° |
| 2026-04-28 19:04 | 52.50520 | 4.05079 | 7327 ft | 259 kts | 109° |
| 2026-04-28 19:04 | 52.49852 | 4.07824 | 7324 ft | 259 kts | 109° |
| 2026-04-28 19:04 | 52.49185 | 4.10566 | 7327 ft | 259 kts | 109° |
| 2026-04-28 19:04 | 52.48514 | 4.13309 | 7238 ft | 258 kts | 109° |
| 2026-04-28 19:05 | 52.47856 | 4.15993 | 6835 ft | 257 kts | 109° |
| 2026-04-28 19:05 | 52.47189 | 4.18699 | 6402 ft | 256 kts | 109° |
| 2026-04-28 19:05 | 52.46525 | 4.21395 | 5983 ft | 254 kts | 109° |
| 2026-04-28 19:05 | 52.45867 | 4.24076 | 5569 ft | 253 kts | 109° |
| 2026-04-28 19:06 | 52.45213 | 4.26743 | 5154 ft | 251 kts | 109° |
| 2026-04-28 19:06 | 52.44772 | 4.28538 | 4860 ft | 251 kts | 109° |
| 2026-04-28 19:06 | 52.43917 | 4.32012 | 4379 ft | 246 kts | 110° |
| 2026-04-28 19:06 | 52.43282 | 4.34583 | 4294 ft | 243 kts | 110° |
| 2026-04-28 19:07 | 52.42644 | 4.37162 | 4299 ft | 245 kts | 110° |
| 2026-04-28 19:07 | 52.42004 | 4.39749 | 4290 ft | 245 kts | 110° |
| 2026-04-28 19:07 | 52.41363 | 4.42333 | 4291 ft | 245 kts | 110° |
| 2026-04-28 19:07 | 52.40741 | 4.44841 | 4290 ft | 245 kts | 110° |
| 2026-04-28 19:08 | 52.40099 | 4.47426 | 4290 ft | 245 kts | 110° |
| 2026-04-28 19:08 | 52.39243 | 4.49831 | 4282 ft | 247 kts | 131° |
| 2026-04-28 19:08 | 52.37785 | 4.51242 | 4281 ft | 248 kts | 161° |
| 2026-04-28 19:08 | 52.36655 | 4.51403 | 4280 ft | 246 kts | 182° |
| 2026-04-28 19:09 | 52.35057 | 4.50446 | 4284 ft | 248 kts | 208° |
| 2026-04-28 19:09 | 52.33639 | 4.48860 | 4287 ft | 246 kts | 212° |
| 2026-04-28 19:09 | 52.32265 | 4.47197 | 4205 ft | 244 kts | 212° |
| 2026-04-28 19:09 | 52.30466 | 4.44999 | 3803 ft | 242 kts | 212° |
| 2026-04-28 19:10 | 52.29575 | 4.43879 | 3717 ft | 236 kts | 212° |
| 2026-04-28 19:10 | 52.28332 | 4.42277 | 3593 ft | 218 kts | 212° |
| 2026-04-28 19:10 | 52.27204 | 4.40778 | 3376 ft | 203 kts | 212° |
| 2026-04-28 19:10 | 52.26118 | 4.39309 | 3025 ft | 201 kts | 212° |
| 2026-04-28 19:11 | 52.25033 | 4.37827 | 3016 ft | 204 kts | 212° |
| 2026-04-28 19:11 | 52.23948 | 4.36334 | 3022 ft | 204 kts | 213° |
| 2026-04-28 19:11 | 52.22818 | 4.35046 | 3019 ft | 194 kts | 191° |
| 2026-04-28 19:11 | 52.21568 | 4.34989 | 3018 ft | 173 kts | 150° |
| 2026-04-28 19:12 | 52.20694 | 4.36164 | 2930 ft | 160 kts | 119° |
| 2026-04-28 19:12 | 52.20135 | 4.37708 | 2802 ft | 158 kts | 113° |
| 2026-04-28 19:12 | 52.19705 | 4.39330 | 2673 ft | 154 kts | 99° |
| 2026-04-28 19:12 | 52.19573 | 4.41054 | 2540 ft | 153 kts | 94° |
| 2026-04-28 19:13 | 52.19527 | 4.42786 | 2426 ft | 153 kts | 91° |
| 2026-04-28 19:13 | 52.19504 | 4.44508 | 2300 ft | 152 kts | 90° |
| 2026-04-28 19:13 | 52.19481 | 4.46221 | 2176 ft | 151 kts | 90° |
| 2026-04-28 19:13 | 52.19587 | 4.47911 | 2086 ft | 151 kts | 76° |
| 2026-04-28 19:14 | 52.20054 | 4.49453 | 2021 ft | 152 kts | 66° |
| 2026-04-28 19:14 | 52.20551 | 4.50976 | 2020 ft | 153 kts | 67° |
| 2026-04-28 19:14 | 52.20897 | 4.52602 | 2016 ft | 153 kts | 69° |
| 2026-04-28 19:14 | 52.21429 | 4.54224 | 2030 ft | 168 kts | 60° |
| 2026-04-28 19:15 | 52.22032 | 4.55861 | 2016 ft | 166 kts | 59° |
| 2026-04-28 19:15 | 52.22611 | 4.57384 | 2001 ft | 148 kts | 59° |
| 2026-04-28 19:15 | 52.23140 | 4.58761 | 2006 ft | 140 kts | 59° |
| 2026-04-28 19:15 | 52.23481 | 4.59645 | 1974 ft | 135 kts | 59° |
| 2026-04-28 19:16 | 52.24129 | 4.61324 | 1793 ft | 128 kts | 59° |
| 2026-04-28 19:16 | 52.24598 | 4.62538 | 1639 ft | 126 kts | 59° |
| 2026-04-28 19:16 | 52.25062 | 4.63739 | 1475 ft | 125 kts | 59° |
| 2026-04-28 19:16 | 52.25517 | 4.64917 | 1313 ft | 124 kts | 59° |
| 2026-04-28 19:17 | 52.25976 | 4.66108 | 1141 ft | 123 kts | 58° |
| 2026-04-28 19:17 | 52.26435 | 4.67297 | 975 ft | 124 kts | 58° |
| 2026-04-28 19:17 | 52.26891 | 4.68480 | 796 ft | 123 kts | 57° |
| 2026-04-28 19:17 | 52.27348 | 4.69666 | 626 ft | 123 kts | 57° |
| 2026-04-28 19:18 | 52.27805 | 4.70851 | 462 ft | 122 kts | 57° |
| 2026-04-28 19:18 | 52.28237 | 4.71972 | 297 ft | 122 kts | 58° |
| 2026-04-28 19:18 | 52.28711 | 4.73204 | 118 ft | 124 kts | 57° |
| 2026-04-28 19:18 | 52.29161 | 4.74374 | 2 ft | 115 kts | 58° |
| 2026-04-28 19:19 | 52.29454 | 4.75138 | -3 ft | 36 kts | 57° |
| 2026-04-28 19:19 | 52.29537 | 4.75323 | -2 ft | 18 kts | 41° |
| 2026-04-28 19:19 | 52.29649 | 4.75333 | -1 ft | 16 kts | 334° |
| 2026-04-28 19:19 | 52.29729 | 4.75280 | -1 ft | 10 kts | 353° |
| 2026-04-28 19:20 | 52.29793 | 4.75267 | -1 ft | 9 kts | 347° |
| 2026-04-28 19:20 | 52.29840 | 4.75202 | -1 ft | 8 kts | 309° |
| 2026-04-28 19:20 | 52.29875 | 4.75134 | -1 ft | 7 kts | 311° |
| 2026-04-28 19:20 | 52.29907 | 4.75076 | -1 ft | 7 kts | 311° |
| 2026-04-28 19:21 | 52.29937 | 4.75022 | -1 ft | 6 kts | 311° |
| 2026-04-28 19:21 | 52.29983 | 4.74936 | -1 ft | 14 kts | 311° |
| 2026-04-28 19:21 | 52.30043 | 4.74824 | 0 ft | 12 kts | 310° |
| 2026-04-28 19:21 | 52.30090 | 4.74735 | 3 ft | 7 kts | 311° |
| 2026-04-28 19:22 | 52.30115 | 4.74689 | 6 ft | 6 kts | 312° |
| 2026-04-28 19:22 | 52.30134 | 4.74655 | 11 ft | 7 kts | 312° |
| 2026-04-28 19:22 | 52.30191 | 4.74551 | 10 ft | 10 kts | 311° |
| 2026-04-28 19:22 | 52.30234 | 4.74472 | 10 ft | 9 kts | 311° |
| 2026-04-28 19:23 | 52.30272 | 4.74401 | 10 ft | 8 kts | 310° |
| 2026-04-28 19:23 | 52.30317 | 4.74313 | 2 ft | 15 kts | 310° |
| 2026-04-28 19:23 | 52.30395 | 4.74203 | -1 ft | 14 kts | 341° |
| 2026-04-28 19:23 | 52.30501 | 4.74202 | -1 ft | 16 kts | 3° |
| 2026-04-28 19:24 | 52.30613 | 4.74211 | -1 ft | 15 kts | 3° |
| 2026-04-28 19:24 | 52.30726 | 4.74221 | -1 ft | 17 kts | 4° |
| 2026-04-28 19:24 | 52.30853 | 4.74232 | -1 ft | 19 kts | 3° |
| 2026-04-28 19:24 | 52.30981 | 4.74247 | -1 ft | 16 kts | 3° |
| 2026-04-28 19:25 | 52.31096 | 4.74256 | -1 ft | 16 kts | 2° |
| 2026-04-28 19:25 | 52.31205 | 4.74267 | -1 ft | 16 kts | 4° |
| 2026-04-28 19:25 | 52.31309 | 4.74275 | -1 ft | 15 kts | 2° |
| 2026-04-28 19:25 | 52.31383 | 4.74331 | -1 ft | 11 kts | 62° |
| 2026-04-28 19:26 | 52.31394 | 4.74455 | -1 ft | 10 kts | 87° |
| 2026-04-28 19:26 | 52.31397 | 4.74579 | -1 ft | 12 kts | 88° |
| 2026-04-28 19:26 | 52.31402 | 4.74731 | -1 ft | 14 kts | 85° |
| 2026-04-28 19:26 | 52.31409 | 4.74909 | -1 ft | 17 kts | 88° |
| 2026-04-28 19:27 | 52.31414 | 4.75082 | -1 ft | 16 kts | 87° |
| 2026-04-28 19:27 | 52.31419 | 4.75244 | -1 ft | 10 kts | 87° |
| 2026-04-28 19:27 | 52.31423 | 4.75370 | -1 ft | 7 kts | 87° |
| 2026-04-28 19:27 | 52.31416 | 4.75454 | -1 ft | 8 kts | 130° |
| 2026-04-28 19:28 | 52.31367 | 4.75476 | -1 ft | 7 kts | 176° |
| 2026-04-28 19:28 | 52.31320 | 4.75479 | -1 ft | 6 kts | 177° |
| 2026-04-28 19:28 | 52.31278 | 4.75483 | -1 ft | 6 kts | 176° |
| 2026-04-28 19:28 | 52.31241 | 4.75487 | -1 ft | 5 kts | 175° |
| 2026-04-28 19:29 | 52.31209 | 4.75491 | -1 ft | 4 kts | 176° |
| 2026-04-28 19:29 | 52.31189 | 4.75493 | -1 ft | 5 kts | 176° |
| 2026-04-28 19:29 | 52.31128 | 4.75498 | -1 ft | 6 kts | 181° |
| 2026-04-28 19:29 | 52.31096 | 4.75481 | -1 ft | 4 kts | 199° |
| 2026-04-28 19:30 | 52.31073 | 4.75491 | -1 ft | 3 kts | 153° |
| 2026-04-28 19:30 | 52.31056 | 4.75507 | -1 ft | 2 kts | 148° |
| 2026-04-28 19:30 | 52.31048 | 4.75515 | -1 ft | 1 kts | 148° |
| 2026-04-28 19:30 | 52.31046 | 4.75517 | -1 ft | 0 kts | 148° |
| 2026-04-28 19:31 | 52.31045 | 4.75518 | -1 ft | 0 kts | 148° |